BAW17PA EGKK-TAPA
Flight info
| Callsign | BAW17PA |
|---|---|
| Flight time | N/A |
| Altitude | 38000 |
| Route | IMVUR N63 SAM N19 ADKIK DCT JOZMA DCT GAPLI/M082F380 DCT OMOKO DCT 48N015W 46N020W 41N030W 35N040W/M082F400 28N050W 24N055W 19N060W/N0468F400 DCT BEVAD |
| Aircraft | B772/H-SDE2E3FGHIJ5LORVWXY/LB1D1 |
Departure
| Time | 2026-05-05 11:37 |
|---|---|
| Airport | London Gatwick Airport (EGKK) |
Arrival
| Time | N/A |
|---|---|
| Airport | V. C. Bird International Airport (TAPA) |
| Time | Latitude | Longitude | Altitude | Speed | Heading |
|---|---|---|---|---|---|
| 2026-05-05 10:56 | 51.15572 | -0.17000 | 208 ft | 0 kts | 167° |
| 2026-05-05 11:04 | 51.15572 | -0.17001 | 208 ft | 0 kts | 167° |
| 2026-05-05 11:05 | 51.15572 | -0.17000 | 208 ft | 0 kts | 167° |
| 2026-05-05 11:05 | 51.15572 | -0.17001 | 208 ft | 0 kts | 167° |
| 2026-05-05 11:12 | 51.15573 | -0.17001 | 208 ft | 0 kts | 167° |
| 2026-05-05 11:15 | 51.15574 | -0.17001 | 208 ft | 2 kts | 167° |
| 2026-05-05 11:15 | 51.15598 | -0.17010 | 213 ft | 4 kts | 167° |
| 2026-05-05 11:15 | 51.15619 | -0.17017 | 222 ft | 4 kts | 173° |
| 2026-05-05 11:16 | 51.15642 | -0.17013 | 221 ft | 4 kts | 227° |
| 2026-05-05 11:16 | 51.15651 | -0.16979 | 217 ft | 4 kts | 257° |
| 2026-05-05 11:16 | 51.15657 | -0.16940 | 216 ft | 2 kts | 257° |
| 2026-05-05 11:16 | 51.15657 | -0.16939 | 217 ft | 4 kts | 257° |
| 2026-05-05 11:21 | 51.15654 | -0.16957 | 213 ft | 5 kts | 257° |
| 2026-05-05 11:21 | 51.15640 | -0.17060 | 212 ft | 13 kts | 257° |
| 2026-05-05 11:22 | 51.15623 | -0.17184 | 214 ft | 12 kts | 258° |
| 2026-05-05 11:22 | 51.15603 | -0.17308 | 217 ft | 12 kts | 255° |
| 2026-05-05 11:22 | 51.15575 | -0.17426 | 219 ft | 11 kts | 230° |
| 2026-05-05 11:22 | 51.15535 | -0.17534 | 214 ft | 12 kts | 255° |
| 2026-05-05 11:23 | 51.15517 | -0.17658 | 219 ft | 12 kts | 257° |
| 2026-05-05 11:23 | 51.15501 | -0.17781 | 214 ft | 11 kts | 258° |
| 2026-05-05 11:23 | 51.15484 | -0.17902 | 216 ft | 11 kts | 257° |
| 2026-05-05 11:23 | 51.15469 | -0.18011 | 208 ft | 9 kts | 257° |
| 2026-05-05 11:24 | 51.15461 | -0.18068 | 220 ft | 0 kts | 257° |
| 2026-05-05 11:25 | 51.15460 | -0.18073 | 217 ft | 2 kts | 257° |
| 2026-05-05 11:25 | 51.15454 | -0.18116 | 214 ft | 6 kts | 258° |
| 2026-05-05 11:25 | 51.15439 | -0.18231 | 208 ft | 15 kts | 257° |
| 2026-05-05 11:25 | 51.15377 | -0.18277 | 211 ft | 12 kts | 162° |
| 2026-05-05 11:26 | 51.15291 | -0.18240 | 214 ft | 13 kts | 166° |
| 2026-05-05 11:26 | 51.15209 | -0.18225 | 212 ft | 10 kts | 201° |
| 2026-05-05 11:26 | 51.15185 | -0.18324 | 218 ft | 12 kts | 260° |
| 2026-05-05 11:26 | 51.15154 | -0.18543 | 212 ft | 26 kts | 259° |
| 2026-05-05 11:27 | 51.15118 | -0.18827 | 215 ft | 26 kts | 258° |
| 2026-05-05 11:27 | 51.15080 | -0.19101 | 214 ft | 21 kts | 257° |
| 2026-05-05 11:27 | 51.15038 | -0.19261 | 212 ft | 12 kts | 209° |
| 2026-05-05 11:27 | 51.14966 | -0.19285 | 220 ft | 10 kts | 226° |
| 2026-05-05 11:28 | 51.14947 | -0.19390 | 217 ft | 10 kts | 259° |
| 2026-05-05 11:28 | 51.14929 | -0.19520 | 214 ft | 15 kts | 257° |
| 2026-05-05 11:28 | 51.14906 | -0.19689 | 216 ft | 16 kts | 258° |
| 2026-05-05 11:28 | 51.14883 | -0.19859 | 218 ft | 16 kts | 258° |
| 2026-05-05 11:29 | 51.14857 | -0.20044 | 211 ft | 20 kts | 257° |
| 2026-05-05 11:29 | 51.14824 | -0.20289 | 215 ft | 23 kts | 257° |
| 2026-05-05 11:29 | 51.14788 | -0.20543 | 215 ft | 23 kts | 257° |
| 2026-05-05 11:29 | 51.14754 | -0.20797 | 218 ft | 23 kts | 258° |
| 2026-05-05 11:30 | 51.14721 | -0.21028 | 215 ft | 20 kts | 257° |
| 2026-05-05 11:30 | 51.14703 | -0.21165 | 211 ft | 1 kts | 258° |
| 2026-05-05 11:31 | 51.14701 | -0.21178 | 213 ft | 0 kts | 258° |
| 2026-05-05 11:32 | 51.14701 | -0.21183 | 210 ft | 1 kts | 258° |
| 2026-05-05 11:32 | 51.14694 | -0.21233 | 217 ft | 7 kts | 258° |
| 2026-05-05 11:32 | 51.14693 | -0.21238 | 217 ft | 0 kts | 258° |
| 2026-05-05 11:33 | 51.14691 | -0.21255 | 211 ft | 5 kts | 258° |
| 2026-05-05 11:33 | 51.14657 | -0.21330 | 216 ft | 10 kts | 199° |
| 2026-05-05 11:33 | 51.14627 | -0.21330 | 214 ft | 0 kts | 171° |
| 2026-05-05 11:35 | 51.14628 | -0.21330 | 214 ft | 0 kts | 171° |
| 2026-05-05 11:35 | 51.14596 | -0.21321 | 213 ft | 10 kts | 167° |
| 2026-05-05 11:35 | 51.14532 | -0.21256 | 212 ft | 11 kts | 127° |
| 2026-05-05 11:35 | 51.14524 | -0.21140 | 216 ft | 11 kts | 71° |
| 2026-05-05 11:36 | 51.14527 | -0.21116 | 219 ft | 0 kts | 77° |
| 2026-05-05 11:36 | 51.14527 | -0.21114 | 219 ft | 3 kts | 77° |
| 2026-05-05 11:36 | 51.14568 | -0.20826 | 217 ft | 57 kts | 78° |
| 2026-05-05 11:36 | 51.14696 | -0.19886 | 215 ft | 117 kts | 78° |
| 2026-05-05 11:37 | 51.14904 | -0.18359 | 307 ft | 157 kts | 76° |
| 2026-05-05 11:37 | 51.15143 | -0.16631 | 843 ft | 164 kts | 75° |
| 2026-05-05 11:37 | 51.15388 | -0.14838 | 1588 ft | 168 kts | 75° |
| 2026-05-05 11:37 | 51.15628 | -0.13033 | 2100 ft | 171 kts | 73° |
| 2026-05-05 11:38 | 51.15909 | -0.11053 | 2183 ft | 195 kts | 75° |
| 2026-05-05 11:38 | 51.16218 | -0.08880 | 2457 ft | 209 kts | 73° |
| 2026-05-05 11:38 | 51.16788 | -0.06695 | 2658 ft | 219 kts | 49° |
| 2026-05-05 11:38 | 51.18026 | -0.05357 | 3049 ft | 219 kts | 17° |
| 2026-05-05 11:39 | 51.19547 | -0.05230 | 2975 ft | 221 kts | 350° |
| 2026-05-05 11:39 | 51.21024 | -0.05845 | 2896 ft | 217 kts | 338° |
| 2026-05-05 11:39 | 51.22210 | -0.07313 | 2847 ft | 221 kts | 307° |